Time;durP1;ratioP1;P1;durP2;ratioP2;P2;SDS_P1;SDS_P2;PMS_P1;PMS_P2;Temp;Humidity;BMP_temperature;BMP_pressure;BME280_temperature;BME280_humidity;BME280_pressure;Samples;Min_cycle;Max_cycle;Signal;HPM_P1;HPM_P2
2024/01/06 00:02:09;;;;;;;15.90;14.40;;;5.80;99.90;;;;;;5015084;28;20459;-80
2024/01/06 00:04:35;;;;;;;15.93;14.52;;;5.70;99.90;;;;;;5026353;28;20038;-78
2024/01/06 00:07:02;;;;;;;16.83;15.43;;;5.80;99.90;;;;;;5021085;28;20045;-78
2024/01/06 00:09:29;;;;;;;15.57;14.13;;;5.80;99.90;;;;;;5041152;28;20708;-79
2024/01/06 00:11:56;;;;;;;17.33;15.60;;;5.80;99.90;;;;;;5024568;28;20037;-77
2024/01/06 00:14:23;;;;;;;15.13;13.60;;;5.80;99.90;;;;;;5025810;28;21238;-78
2024/01/06 00:16:49;;;;;;;15.90;14.30;;;5.70;99.90;;;;;;5015056;28;20041;-78
2024/01/06 00:19:17;;;;;;;16.92;14.43;;;5.70;99.90;;;;;;5002147;28;20045;-79
2024/01/06 00:21:45;;;;;;;16.38;13.80;;;5.70;99.90;;;;;;5014977;28;20504;-78
2024/01/06 00:24:12;;;;;;;16.13;12.43;;;5.70;99.90;;;;;;5022842;28;20107;-79
2024/01/06 00:26:39;;;;;;;16.08;13.90;;;5.70;99.90;;;;;;5011631;28;20625;-78
2024/01/06 00:29:05;;;;;;;16.63;14.60;;;5.70;99.90;;;;;;5028989;28;20130;-77
2024/01/06 00:31:32;;;;;;;16.90;14.02;;;5.70;99.90;;;;;;5067559;28;20108;-78
2024/01/06 00:33:59;;;;;;;18.48;14.82;;;5.70;99.90;;;;;;5009217;28;20033;-77
2024/01/06 00:36:26;;;;;;;17.02;14.55;;;5.70;99.90;;;;;;5030157;28;20506;-78
2024/01/06 00:38:56;;;;;;;19.52;15.57;;;5.70;99.90;;;;;;5036220;28;20362;-78
2024/01/06 00:41:22;;;;;;;17.42;15.07;;;5.70;99.90;;;;;;5007781;28;20053;-78
2024/01/06 00:43:49;;;;;;;18.15;14.35;;;5.80;99.90;;;;;;5026754;28;20059;-77
2024/01/06 00:46:16;;;;;;;23.77;15.68;;;5.70;99.90;;;;;;5016639;28;20044;-79
2024/01/06 00:48:43;;;;;;;23.42;16.45;;;5.70;99.90;;;;;;5031183;28;20079;-78
2024/01/06 00:51:10;;;;;;;23.75;16.70;;;5.70;99.90;;;;;;5011742;28;20041;-78
2024/01/06 00:53:36;;;;;;;26.60;17.65;;;5.70;99.90;;;;;;5009919;28;20044;-79
2024/01/06 00:56:03;;;;;;;25.23;18.02;;;5.70;99.90;;;;;;5031634;28;20065;-78
2024/01/06 00:58:30;;;;;;;24.95;17.05;;;5.70;99.90;;;;;;5069197;28;20032;-78
2024/01/06 01:00:57;;;;;;;21.83;14.65;;;5.70;99.90;;;;;;5034492;28;20061;-78
2024/01/06 01:03:24;;;;;;;25.15;15.30;;;5.60;99.90;;;;;;4998428;28;20061;-79
2024/01/06 01:05:51;;;;;;;24.77;15.15;;;5.40;99.90;;;;;;5010679;28;20045;-77
2024/01/06 01:08:18;;;;;;;23.27;16.27;;;5.40;99.90;;;;;;5028974;28;20119;-79
2024/01/06 01:10:45;;;;;;;26.95;17.92;;;5.40;99.90;;;;;;5029140;28;20040;-78
2024/01/06 01:13:12;;;;;;;25.30;18.33;;;5.40;99.90;;;;;;5013668;28;20056;-78
2024/01/06 01:15:38;;;;;;;30.88;19.25;;;5.50;99.90;;;;;;5035960;28;20048;-78
2024/01/06 01:18:05;;;;;;;35.00;21.27;;;5.50;99.90;;;;;;5008981;28;20389;-79
2024/01/06 01:20:32;;;;;;;36.17;21.55;;;5.40;99.90;;;;;;5046955;28;20057;-79
2024/01/06 01:23:01;;;;;;;35.00;21.58;;;5.50;99.90;;;;;;5024888;28;20056;-79
2024/01/06 01:25:27;;;;;;;40.15;23.63;;;5.50;99.90;;;;;;5026156;28;20063;-78
2024/01/06 01:27:54;;;;;;;41.35;23.50;;;5.50;99.90;;;;;;5032447;28;20539;-80
2024/01/06 01:30:21;;;;;;;38.67;22.08;;;5.40;99.90;;;;;;5016858;28;21034;-81
2024/01/06 01:32:48;;;;;;;44.65;24.83;;;5.50;99.90;;;;;;5035442;28;20052;-78
2024/01/06 01:35:15;;;;;;;43.50;24.88;;;5.50;99.90;;;;;;4977300;28;20164;-79
2024/01/06 01:37:41;;;;;;;47.05;24.45;;;5.50;99.90;;;;;;5022473;28;20063;-79
2024/01/06 01:40:08;;;;;;;45.97;25.55;;;5.50;99.90;;;;;;5032035;28;20672;-78
2024/01/06 01:42:35;;;;;;;46.42;24.98;;;5.50;99.90;;;;;;4991997;28;20060;-79
2024/01/06 01:45:03;;;;;;;44.97;26.15;;;5.60;99.90;;;;;;5034251;28;20559;-78
2024/01/06 01:47:30;;;;;;;48.30;27.80;;;5.60;99.90;;;;;;5033412;28;20072;-80
2024/01/06 01:49:57;;;;;;;54.20;27.92;;;5.70;99.90;;;;;;5019132;28;20132;-80
2024/01/06 01:52:24;;;;;;;61.47;28.98;;;5.80;99.90;;;;;;5032835;28;20041;-80
2024/01/06 01:54:52;;;;;;;56.72;30.50;;;5.80;99.90;;;;;;5019573;28;20053;-79
2024/01/06 01:57:20;;;;;;;66.80;30.63;;;5.70;99.90;;;;;;5025497;28;20045;-79
2024/01/06 01:59:48;;;;;;;67.30;31.33;;;5.70;99.90;;;;;;5026360;28;20044;-79
2024/01/06 02:02:16;;;;;;;68.90;33.65;;;5.70;99.90;;;;;;5024667;28;20530;-79
2024/01/06 02:04:45;;;;;;;67.53;32.65;;;5.70;99.90;;;;;;4998958;28;20877;-80
2024/01/06 02:07:12;;;;;;;62.97;32.55;;;5.70;99.90;;;;;;5025884;28;20049;-79
2024/01/06 02:09:38;;;;;;;62.63;29.83;;;5.70;99.90;;;;;;5051564;28;20037;-79
2024/01/06 02:12:06;;;;;;;64.78;31.40;;;5.60;99.90;;;;;;5012550;28;20059;-80
2024/01/06 02:14:32;;;;;;;62.95;30.35;;;5.50;99.90;;;;;;5029355;28;20077;-79
2024/01/06 02:16:59;;;;;;;54.88;28.23;;;5.50;99.90;;;;;;5027906;28;20064;-79
2024/01/06 02:19:26;;;;;;;56.80;27.50;;;5.50;99.90;;;;;;5028771;28;20049;-79
2024/01/06 02:21:53;;;;;;;52.17;27.05;;;5.60;99.90;;;;;;5019002;28;20188;-78
2024/01/06 02:24:20;;;;;;;50.63;26.10;;;5.60;99.90;;;;;;4999194;28;20029;-78
2024/01/06 02:26:48;;;;;;;58.25;28.88;;;5.60;99.90;;;;;;5017114;28;20040;-79
2024/01/06 02:29:15;;;;;;;56.95;29.40;;;5.60;99.90;;;;;;5029970;28;20586;-79
2024/01/06 02:31:42;;;;;;;52.22;27.70;;;5.70;99.90;;;;;;5034494;28;20045;-79
2024/01/06 02:34:09;;;;;;;51.40;27.10;;;5.70;99.90;;;;;;5038783;28;20419;-78
2024/01/06 02:36:36;;;;;;;54.28;27.90;;;5.60;99.90;;;;;;5032908;28;20053;-79
2024/01/06 02:39:03;;;;;;;57.95;28.23;;;5.60;99.90;;;;;;5013076;28;20096;-78
2024/01/06 02:41:29;;;;;;;54.50;28.00;;;5.50;99.90;;;;;;5033504;28;20060;-79
2024/01/06 02:43:56;;;;;;;47.10;26.92;;;5.50;99.90;;;;;;5001123;28;20679;-80
2024/01/06 02:46:23;;;;;;;40.58;23.63;;;5.50;99.90;;;;;;5015808;28;20068;-79
2024/01/06 02:48:50;;;;;;;30.80;19.02;;;5.40;99.90;;;;;;5041573;28;20041;-79
2024/01/06 02:51:17;;;;;;;30.65;19.55;;;5.30;99.90;;;;;;5017797;28;20070;-80
2024/01/06 02:53:43;;;;;;;33.42;19.77;;;5.30;99.90;;;;;;5012670;28;20057;-79
2024/01/06 02:56:11;;;;;;;36.42;20.63;;;5.20;99.90;;;;;;5027487;28;20112;-79
2024/01/06 02:58:39;;;;;;;26.50;17.60;;;5.20;99.90;;;;;;5025974;28;20049;-79
2024/01/06 03:01:06;;;;;;;26.38;15.75;;;5.20;99.90;;;;;;5024383;28;20490;-81
2024/01/06 03:03:33;;;;;;;26.60;15.88;;;5.10;99.90;;;;;;5011162;28;20261;-80
2024/01/06 03:06:00;;;;;;;23.25;14.93;;;5.20;99.90;;;;;;5029388;28;20049;-80
2024/01/06 03:08:27;;;;;;;24.33;14.60;;;5.10;99.90;;;;;;5031985;28;20052;-81
2024/01/06 03:10:53;;;;;;;23.88;15.55;;;5.10;99.90;;;;;;5018359;28;20078;-81
2024/01/06 03:13:20;;;;;;;24.17;14.00;;;5.10;99.90;;;;;;5027707;28;20044;-81
2024/01/06 03:15:47;;;;;;;25.73;15.20;;;5.10;99.90;;;;;;5022350;28;20069;-82
2024/01/06 03:18:14;;;;;;;22.88;14.32;;;5.10;99.90;;;;;;5033853;28;20154;-80
2024/01/06 03:20:41;;;;;;;24.27;14.50;;;5.00;99.90;;;;;;5015674;28;20045;-80
2024/01/06 03:23:08;;;;;;;22.60;13.68;;;5.00;99.90;;;;;;5015106;28;20121;-82
2024/01/06 03:25:35;;;;;;;25.23;14.60;;;5.00;99.90;;;;;;5020750;28;20608;-82
2024/01/06 03:28:02;;;;;;;29.35;16.67;;;5.00;99.90;;;;;;5034318;28;20042;-81
2024/01/06 03:30:28;;;;;;;24.92;15.88;;;5.00;99.90;;;;;;4999103;28;20057;-81
2024/01/06 03:32:55;;;;;;;20.65;14.65;;;5.10;99.90;;;;;;5030103;28;20104;-81
2024/01/06 03:35:23;;;;;;;22.98;15.23;;;5.10;99.90;;;;;;5023819;28;20048;-82
2024/01/06 03:37:50;;;;;;;26.52;16.15;;;5.00;99.90;;;;;;5024514;28;20044;-81
2024/01/06 03:40:16;;;;;;;23.90;15.68;;;5.10;99.90;;;;;;5049593;28;20045;-81
2024/01/06 03:42:43;;;;;;;26.60;17.05;;;5.10;99.90;;;;;;5028721;28;20163;-80
2024/01/06 03:45:10;;;;;;;22.33;15.93;;;5.20;99.90;;;;;;5027728;28;20069;-82
2024/01/06 03:47:37;;;;;;;28.50;17.08;;;5.20;99.90;;;;;;5063155;28;20055;-81
2024/01/06 03:50:05;;;;;;;26.10;17.25;;;5.20;99.90;;;;;;5048707;28;20757;-80
2024/01/06 03:52:32;;;;;;;20.77;16.10;;;5.20;99.90;;;;;;5032918;28;20052;-82
2024/01/06 03:54:59;;;;;;;22.80;16.50;;;5.30;99.90;;;;;;5027409;28;20058;-81
2024/01/06 03:57:25;;;;;;;23.13;16.83;;;5.30;99.90;;;;;;5008764;28;20048;-82
2024/01/06 03:59:53;;;;;;;22.35;17.63;;;5.30;99.90;;;;;;5031865;28;20048;-79
2024/01/06 04:02:19;;;;;;;22.63;18.08;;;5.40;99.90;;;;;;5019925;28;20047;-79
2024/01/06 04:04:46;;;;;;;27.02;18.98;;;5.40;99.90;;;;;;5030552;28;20052;-79
2024/01/06 04:07:13;;;;;;;23.00;19.17;;;5.40;99.90;;;;;;5029081;28;20048;-79
2024/01/06 04:09:43;;;;;;;27.08;21.35;;;5.40;99.90;;;;;;5033398;28;20048;-79
2024/01/06 04:12:09;;;;;;;24.58;19.20;;;5.40;99.90;;;;;;5018882;28;20340;-79
2024/01/06 04:14:36;;;;;;;25.95;19.80;;;5.40;99.90;;;;;;5026552;28;20045;-79
2024/01/06 04:17:03;;;;;;;29.02;21.25;;;5.40;99.90;;;;;;5015416;28;20044;-80
2024/01/06 04:19:30;;;;;;;29.98;20.63;;;5.50;99.90;;;;;;5011626;28;20054;-79
2024/01/06 04:21:57;;;;;;;28.95;20.90;;;5.40;99.90;;;;;;5026816;28;20128;-78
2024/01/06 04:24:24;;;;;;;31.35;20.63;;;5.40;99.90;;;;;;5004533;28;20694;-79
2024/01/06 04:26:51;;;;;;;29.63;21.27;;;5.50;99.90;;;;;;5024961;28;20040;-78
2024/01/06 04:29:18;;;;;;;32.55;22.27;;;5.50;99.90;;;;;;5061000;28;20033;-78
2024/01/06 04:31:45;;;;;;;30.20;22.02;;;5.50;99.90;;;;;;5039926;28;20052;-77
2024/01/06 04:34:12;;;;;;;31.42;22.02;;;5.50;99.90;;;;;;5033788;28;20156;-80
2024/01/06 04:36:39;;;;;;;31.23;22.30;;;5.50;99.90;;;;;;5016134;28;21016;-78
2024/01/06 04:39:06;;;;;;;30.17;22.48;;;5.40;99.90;;;;;;5008569;28;20041;-79
2024/01/06 04:41:33;;;;;;;36.97;22.65;;;5.40;99.90;;;;;;5030717;28;20695;-79
2024/01/06 04:44:00;;;;;;;33.72;22.15;;;5.50;99.90;;;;;;5016737;28;20463;-78
2024/01/06 04:46:27;;;;;;;40.10;23.13;;;5.50;99.90;;;;;;5023897;28;20037;-79
2024/01/06 04:48:53;;;;;;;35.17;22.75;;;5.50;99.90;;;;;;5017577;28;20045;-79
2024/01/06 04:51:20;;;;;;;33.92;22.98;;;5.50;99.90;;;;;;5013163;28;20049;-78
2024/01/06 04:53:47;;;;;;;34.17;23.02;;;5.50;99.90;;;;;;5025816;28;20065;-80
2024/01/06 04:56:14;;;;;;;34.25;23.20;;;5.40;99.90;;;;;;5032311;28;20052;-79
2024/01/06 04:58:41;;;;;;;37.60;22.63;;;5.40;99.90;;;;;;5033784;28;20045;-80
2024/01/06 05:01:08;;;;;;;31.63;23.58;;;5.60;99.90;;;;;;5014978;28;20049;-78
2024/01/06 05:03:35;;;;;;;31.13;23.45;;;5.50;99.90;;;;;;5009881;28;20057;-80
2024/01/06 05:06:02;;;;;;;34.72;24.13;;;5.50;99.90;;;;;;5030430;28;20036;-78
2024/01/06 05:08:30;;;;;;;33.10;24.23;;;5.50;99.90;;;;;;5011309;28;20042;-80
2024/01/06 05:10:58;;;;;;;41.78;25.23;;;5.60;99.90;;;;;;5047146;28;20132;-80
2024/01/06 05:13:24;;;;;;;35.42;24.77;;;5.70;99.90;;;;;;5009446;28;20041;-80
2024/01/06 05:15:51;;;;;;;31.33;23.80;;;5.60;99.90;;;;;;5015390;28;20041;-79
2024/01/06 05:18:18;;;;;;;35.25;24.80;;;5.50;99.90;;;;;;5015915;28;20068;-80
2024/01/06 05:20:45;;;;;;;37.28;25.25;;;5.50;99.90;;;;;;5028214;28;20052;-78
2024/01/06 05:23:12;;;;;;;34.67;25.75;;;5.60;99.90;;;;;;5018616;28;20072;-80
2024/01/06 05:25:39;;;;;;;35.10;27.02;;;5.70;99.90;;;;;;5010135;28;20042;-80
2024/01/06 05:28:05;;;;;;;32.03;26.48;;;5.70;99.90;;;;;;5034970;28;20049;-79
2024/01/06 05:30:32;;;;;;;37.13;27.42;;;5.70;99.90;;;;;;5015841;28;20045;-79
2024/01/06 05:32:59;;;;;;;36.95;26.60;;;5.60;99.90;;;;;;5035354;28;20041;-79
2024/01/06 05:35:26;;;;;;;34.55;26.98;;;5.60;99.90;;;;;;5028753;28;20067;-79
2024/01/06 05:37:53;;;;;;;37.33;27.00;;;5.70;99.90;;;;;;5035401;28;20057;-79
2024/01/06 05:40:20;;;;;;;39.88;27.70;;;5.60;99.90;;;;;;5027021;28;20050;-79
2024/01/06 05:42:47;;;;;;;34.63;25.58;;;5.60;99.90;;;;;;5028592;28;20542;-79
2024/01/06 05:45:14;;;;;;;39.42;27.02;;;5.60;99.90;;;;;;5017556;28;20568;-79
2024/01/06 05:47:40;;;;;;;41.42;28.52;;;5.60;99.90;;;;;;5032481;28;20052;-78
2024/01/06 05:50:10;;;;;;;42.67;28.42;;;5.70;99.90;;;;;;5031172;28;20033;-79
2024/01/06 05:52:37;;;;;;;38.15;27.15;;;5.70;99.90;;;;;;5022714;28;20457;-78
2024/01/06 05:55:04;;;;;;;37.92;26.10;;;5.60;99.90;;;;;;5029803;28;20049;-79
2024/01/06 05:57:31;;;;;;;42.70;27.00;;;5.50;99.90;;;;;;5029002;28;20473;-77
2024/01/06 05:59:59;;;;;;;44.38;26.52;;;5.40;99.90;;;;;;5057768;28;20167;-79
2024/01/06 06:02:27;;;;;;;49.35;26.85;;;5.50;99.90;;;;;;5015014;28;20079;-78
2024/01/06 06:04:53;;;;;;;47.42;27.05;;;5.50;99.90;;;;;;5030349;28;20045;-78
2024/01/06 06:07:20;;;;;;;50.17;27.48;;;5.50;99.90;;;;;;5034754;28;20091;-81
2024/01/06 06:09:47;;;;;;;49.15;27.60;;;5.50;99.90;;;;;;5020060;28;20048;-80
2024/01/06 06:12:15;;;;;;;47.60;27.15;;;5.50;99.90;;;;;;5017261;28;20033;-82
2024/01/06 06:14:42;;;;;;;55.78;29.13;;;5.60;99.90;;;;;;5033521;28;20044;-81
2024/01/06 06:17:09;;;;;;;51.88;28.70;;;5.60;99.90;;;;;;5033209;28;20056;-80
2024/01/06 06:19:35;;;;;;;62.85;31.58;;;5.60;99.90;;;;;;5003443;28;20073;-80
2024/01/06 06:22:03;;;;;;;56.13;30.33;;;5.60;99.90;;;;;;5033096;28;20037;-80
2024/01/06 06:24:31;;;;;;;61.60;30.13;;;5.60;99.90;;;;;;5026804;28;20455;-81
2024/01/06 06:26:58;;;;;;;65.05;31.63;;;5.60;99.90;;;;;;5015744;28;20046;-81
2024/01/06 06:29:25;;;;;;;57.95;29.65;;;5.60;99.90;;;;;;5032945;28;20045;-80
2024/01/06 06:31:52;;;;;;;57.22;29.58;;;5.60;99.90;;;;;;5025610;28;20128;-79
2024/01/06 06:34:18;;;;;;;56.88;28.92;;;5.60;99.90;;;;;;5026873;28;20037;-79
2024/01/06 06:36:46;;;;;;;68.20;30.77;;;5.60;99.90;;;;;;5020532;28;21346;-79
2024/01/06 06:39:13;;;;;;;64.03;31.63;;;5.60;99.90;;;;;;5039003;28;20261;-79
2024/01/06 06:41:40;;;;;;;71.05;31.80;;;5.70;99.90;;;;;;5030520;28;20557;-79
2024/01/06 06:44:06;;;;;;;63.00;32.00;;;5.80;99.90;;;;;;5035018;28;20045;-79
2024/01/06 06:46:33;;;;;;;68.32;32.78;;;5.80;99.90;;;;;;5042265;28;20052;-78
2024/01/06 06:49:00;;;;;;;74.60;33.60;;;5.80;99.90;;;;;;5051901;28;20199;-78
2024/01/06 06:51:28;;;;;;;89.63;38.30;;;5.70;99.90;;;;;;5013700;28;20467;-78
2024/01/06 06:53:55;;;;;;;76.20;36.15;;;5.80;99.90;;;;;;5030752;28;20580;-80
2024/01/06 06:56:22;;;;;;;79.90;36.55;;;5.80;99.90;;;;;;5030001;28;20045;-79
2024/01/06 06:58:49;;;;;;;71.88;32.50;;;5.80;99.90;;;;;;5007061;28;20095;-78
2024/01/06 07:01:16;;;;;;;69.03;32.88;;;5.70;99.90;;;;;;5009750;28;20524;-78
2024/01/06 07:03:43;;;;;;;71.05;33.17;;;5.70;99.90;;;;;;4997700;28;20051;-78
2024/01/06 07:06:14;;;;;;;68.55;32.22;;;5.60;99.90;;;;;;5009437;28;20036;-79
2024/01/06 07:08:41;;;;;;;66.55;31.15;;;5.60;99.90;;;;;;5018509;28;20049;-79
2024/01/06 07:11:09;;;;;;;65.20;29.63;;;5.60;99.90;;;;;;5025603;28;20059;-78
2024/01/06 07:13:35;;;;;;;70.63;31.67;;;5.60;99.90;;;;;;5018891;28;20056;-79
2024/01/06 07:16:02;;;;;;;70.82;33.58;;;5.60;99.90;;;;;;5024789;28;20136;-79
2024/01/06 07:18:43;;;;;;;64.03;33.20;;;5.60;99.90;;;;;;5024431;28;20639;-79
2024/01/06 07:21:12;;;;;;;72.65;34.40;;;5.60;99.90;;;;;;5034251;28;20044;-82
2024/01/06 07:23:39;;;;;;;71.75;34.25;;;5.60;99.90;;;;;;4997066;28;20041;-79
2024/01/06 07:26:06;;;;;;;80.30;37.38;;;5.60;99.90;;;;;;5027084;28;20064;-80
2024/01/06 07:28:33;;;;;;;97.07;44.05;;;5.60;99.90;;;;;;5024894;28;20061;-80
2024/01/06 07:31:00;;;;;;;95.15;43.97;;;5.50;99.90;;;;;;5002354;28;20095;-79
2024/01/06 07:33:28;;;;;;;76.35;37.75;;;5.50;99.90;;;;;;5012162;28;20033;-79
2024/01/06 07:35:57;;;;;;;79.57;38.17;;;5.60;99.90;;;;;;5027379;28;20040;-77
2024/01/06 07:38:24;;;;;;;70.25;34.28;;;5.60;99.90;;;;;;5031970;28;20107;-78
2024/01/06 07:40:51;;;;;;;83.03;38.35;;;5.50;99.90;;;;;;5019002;28;20044;-77
2024/01/06 07:43:18;;;;;;;81.25;37.03;;;5.40;99.90;;;;;;5030444;28;20612;-77
2024/01/06 07:45:44;;;;;;;79.25;35.75;;;5.50;99.90;;;;;;5019124;28;20044;-76
2024/01/06 07:48:11;;;;;;;87.55;37.45;;;5.50;99.90;;;;;;5026917;28;20557;-76
2024/01/06 07:50:38;;;;;;;82.55;34.72;;;5.40;99.90;;;;;;5027185;28;20068;-77
2024/01/06 07:53:05;;;;;;;85.95;34.45;;;5.30;99.90;;;;;;5040904;28;20033;-79
2024/01/06 07:55:32;;;;;;;85.90;36.42;;;5.40;99.90;;;;;;5012076;28;20050;-79
2024/01/06 07:57:59;;;;;;;86.25;34.72;;;5.40;99.90;;;;;;5013706;28;20108;-79
2024/01/06 08:00:26;;;;;;;100.22;39.92;;;5.40;99.90;;;;;;5024830;28;20043;-79
2024/01/06 08:02:53;;;;;;;102.10;38.63;;;5.40;99.90;;;;;;5049300;28;21345;-78
2024/01/06 08:05:19;;;;;;;100.07;40.38;;;5.30;99.90;;;;;;5032289;28;20055;-76
2024/01/06 08:07:46;;;;;;;87.90;37.95;;;5.20;99.90;;;;;;5016648;28;20071;-78
2024/01/06 08:10:13;;;;;;;104.68;38.45;;;5.20;99.90;;;;;;5022873;28;20046;-78
2024/01/06 08:12:40;;;;;;;99.60;37.78;;;5.20;99.90;;;;;;5027909;28;20049;-78
2024/01/06 08:15:09;;;;;;;106.15;39.70;;;5.20;99.90;;;;;;5030970;28;20155;-77
2024/01/06 08:17:36;;;;;;;111.75;41.10;;;5.10;99.90;;;;;;5011623;28;20037;-78
2024/01/06 08:20:03;;;;;;;107.28;41.83;;;5.10;99.90;;;;;;5027534;28;20055;-76
2024/01/06 08:22:30;;;;;;;106.22;38.45;;;5.10;99.90;;;;;;5011186;28;20040;-77
2024/01/06 08:24:57;;;;;;;99.13;40.15;;;5.10;99.90;;;;;;5021315;28;20552;-77
2024/01/06 08:27:23;;;;;;;112.28;44.50;;;5.20;99.90;;;;;;5024656;28;20128;-77
2024/01/06 08:29:51;;;;;;;118.40;42.88;;;5.20;99.90;;;;;;5029836;28;20044;-77
2024/01/06 08:32:17;;;;;;;117.03;42.55;;;5.30;99.90;;;;;;5030630;28;20037;-78
2024/01/06 08:34:44;;;;;;;101.57;39.50;;;5.50;99.90;;;;;;5013514;28;20050;-77
2024/01/06 08:37:11;;;;;;;109.13;40.72;;;5.40;99.90;;;;;;5013685;28;20055;-77
2024/01/06 08:39:38;;;;;;;118.63;41.17;;;5.40;99.90;;;;;;5015222;28;20049;-76
2024/01/06 08:42:05;;;;;;;119.13;49.78;;;5.40;99.90;;;;;;5005467;28;20305;-77
2024/01/06 08:44:31;;;;;;;131.35;49.53;;;5.40;99.90;;;;;;5005562;28;20511;-77
2024/01/06 08:46:58;;;;;;;129.50;48.72;;;5.40;99.90;;;;;;5003848;28;20103;-76
2024/01/06 08:49:25;;;;;;;137.88;49.88;;;5.40;99.90;;;;;;5029643;28;20044;-77
2024/01/06 08:51:52;;;;;;;120.25;46.58;;;5.50;99.90;;;;;;5014946;28;20680;-77
2024/01/06 08:54:18;;;;;;;130.23;47.75;;;5.40;99.90;;;;;;5007635;28;20642;-77
2024/01/06 08:56:45;;;;;;;119.93;46.28;;;5.30;99.90;;;;;;5023411;28;20147;-77
2024/01/06 08:59:12;;;;;;;113.72;46.00;;;5.20;99.90;;;;;;5026565;28;20036;-77
2024/01/06 09:01:38;;;;;;;122.13;44.15;;;5.30;99.90;;;;;;5007332;28;20584;-77
2024/01/06 09:04:06;;;;;;;118.10;43.60;;;5.40;99.90;;;;;;5008128;28;20924;-77
2024/01/06 09:06:33;;;;;;;121.00;50.33;;;5.30;99.90;;;;;;5011818;28;20773;-78
2024/01/06 09:09:00;;;;;;;114.18;46.03;;;5.40;99.90;;;;;;5010562;28;20569;-78
2024/01/06 09:11:27;;;;;;;108.00;43.55;;;5.30;99.90;;;;;;5028725;28;20507;-78
2024/01/06 09:13:54;;;;;;;110.78;43.88;;;5.30;99.90;;;;;;5017650;28;20108;-77
2024/01/06 09:16:21;;;;;;;115.13;49.10;;;5.30;99.90;;;;;;5023764;28;20515;-78
2024/01/06 09:18:48;;;;;;;101.38;44.90;;;5.30;99.90;;;;;;5019054;28;20810;-78
2024/01/06 09:21:15;;;;;;;111.00;42.45;;;5.30;99.90;;;;;;5007856;28;20076;-77
2024/01/06 09:23:42;;;;;;;96.35;38.58;;;5.30;99.90;;;;;;5024906;28;20136;-78
2024/01/06 09:26:09;;;;;;;94.05;34.50;;;5.30;99.90;;;;;;5028284;28;20068;-78
2024/01/06 09:28:36;;;;;;;94.63;36.47;;;5.30;99.90;;;;;;5022293;28;20107;-78
2024/01/06 09:31:04;;;;;;;98.40;38.30;;;5.30;99.90;;;;;;5034804;28;20072;-78
2024/01/06 09:33:33;;;;;;;104.75;41.15;;;5.30;99.90;;;;;;5009627;28;20737;-77
2024/01/06 09:36:01;;;;;;;103.45;40.67;;;5.40;99.90;;;;;;5022783;28;20056;-77
2024/01/06 09:38:28;;;;;;;107.43;44.53;;;5.40;99.90;;;;;;5019442;28;20048;-77
2024/01/06 09:40:55;;;;;;;106.10;45.33;;;5.30;99.90;;;;;;5004848;28;20053;-77
2024/01/06 09:43:23;;;;;;;117.03;44.15;;;5.30;99.90;;;;;;5024220;28;20098;-77
2024/01/06 09:46:01;;;;;;;107.95;42.67;;;5.30;99.90;;;;;;5018088;28;20040;-77
2024/01/06 09:48:30;;;;;;;122.82;45.28;;;5.30;99.90;;;;;;5035705;28;20080;-76
2024/01/06 09:51:02;;;;;;;119.88;43.60;;;5.40;99.90;;;;;;5016800;28;20592;-78
2024/01/06 09:53:36;;;;;;;128.52;47.33;;;5.40;99.90;;;;;;5029397;28;20617;-78
2024/01/06 09:56:04;;;;;;;119.15;44.97;;;5.30;99.90;;;;;;5002693;28;20120;-78
2024/01/06 09:58:34;;;;;;;119.55;47.78;;;5.40;99.90;;;;;;5013564;28;20052;-78
2024/01/06 10:01:01;;;;;;;131.35;45.63;;;5.30;99.90;;;;;;5005905;28;20106;-78
2024/01/06 10:03:29;;;;;;;132.32;47.13;;;5.40;99.90;;;;;;4990489;28;20516;-79
2024/01/06 10:06:00;;;;;;;131.63;55.42;;;5.40;99.90;;;;;;5025960;28;20052;-78
2024/01/06 10:08:27;;;;;;;126.10;46.95;;;5.40;99.90;;;;;;5032760;28;20041;-78
2024/01/06 10:10:54;;;;;;;118.15;44.35;;;5.40;99.90;;;;;;5028306;28;20041;-78
2024/01/06 10:13:21;;;;;;;273.85;54.72;;;5.40;99.90;;;;;;5030357;28;20044;-77
2024/01/06 10:15:47;;;;;;;350.02;56.75;;;5.40;99.90;;;;;;5010957;28;20041;-77
2024/01/06 10:18:14;;;;;;;603.08;66.65;;;5.20;99.90;;;;;;5011718;28;20064;-80
2024/01/06 10:20:41;;;;;;;491.58;61.65;;;5.10;99.90;;;;;;5023865;28;20716;-79
2024/01/06 10:23:08;;;;;;;348.33;51.92;;;5.00;99.90;;;;;;5020501;28;20036;-79
2024/01/06 10:25:35;;;;;;;316.05;47.03;;;5.00;99.90;;;;;;5026686;28;20045;-80
2024/01/06 10:28:03;;;;;;;304.05;43.60;;;4.90;99.90;;;;;;5031168;28;20046;-81
2024/01/06 10:30:29;;;;;;;262.50;40.13;;;4.90;99.90;;;;;;5001761;28;20056;-78
2024/01/06 10:32:56;;;;;;;312.45;46.80;;;4.90;99.90;;;;;;5029883;28;20125;-79
2024/01/06 10:35:26;;;;;;;266.15;41.60;;;4.80;99.90;;;;;;5014035;28;20045;-78
2024/01/06 10:37:53;;;;;;;363.48;48.75;;;4.80;99.90;;;;;;5028836;28;20045;-79
2024/01/06 10:40:20;;;;;;;341.73;41.03;;;4.80;99.90;;;;;;5015133;28;20052;-79
2024/01/06 10:42:47;;;;;;;235.85;33.65;;;4.70;99.90;;;;;;5015969;28;20046;-79
2024/01/06 10:45:15;;;;;;;169.85;30.52;;;4.70;99.90;;;;;;5015904;28;20040;-79
2024/01/06 10:47:43;;;;;;;126.78;27.67;;;4.60;99.90;;;;;;5039978;28;20071;-78
2024/01/06 10:50:10;;;;;;;101.75;25.52;;;4.70;99.90;;;;;;5028441;28;20041;-79
2024/01/06 10:52:39;;;;;;;94.38;25.13;;;4.70;99.90;;;;;;5063873;28;20048;-79
2024/01/06 10:55:06;;;;;;;81.40;23.65;;;4.60;99.90;;;;;;5014025;28;20049;-79
2024/01/06 10:57:34;;;;;;;63.22;20.23;;;4.60;99.90;;;;;;5023127;28;20053;-77
2024/01/06 11:00:01;;;;;;;69.15;22.23;;;4.60;99.90;;;;;;5036861;28;20060;-78
2024/01/06 11:02:30;;;;;;;71.55;22.67;;;4.60;99.90;;;;;;5037303;28;20691;-77
2024/01/06 11:04:57;;;;;;;63.40;21.75;;;4.60;99.90;;;;;;5011026;28;20111;-78
2024/01/06 11:07:25;;;;;;;83.28;23.88;;;4.60;99.90;;;;;;5017893;28;20091;-78
2024/01/06 11:10:07;;;;;;;67.75;25.65;;;4.50;99.90;;;;;;5041182;28;20124;-78
2024/01/06 11:12:34;;;;;;;55.05;20.52;;;4.60;99.90;;;;;;5017968;28;20065;-78
2024/01/06 11:15:00;;;;;;;49.58;19.92;;;4.50;99.90;;;;;;5011509;28;20052;-79
2024/01/06 11:17:53;;;;;;;49.53;21.25;;;4.40;99.90;;;;;;5018415;28;20041;-78
2024/01/06 11:20:27;;;;;;;53.00;20.02;;;4.50;99.90;;;;;;5018862;28;20722;-80
2024/01/06 11:23:12;;;;;;;53.88;21.50;;;4.50;99.90;;;;;;4994594;28;20038;-78
2024/01/06 11:25:41;;;;;;;43.65;18.30;;;4.50;99.90;;;;;;5007211;28;20041;-79
2024/01/06 11:28:08;;;;;;;43.80;19.40;;;4.60;99.90;;;;;;5012676;28;20040;-81
2024/01/06 11:30:35;;;;;;;48.47;20.88;;;4.60;99.90;;;;;;5014682;28;20152;-80
2024/01/06 11:33:04;;;;;;;53.75;21.52;;;4.70;99.90;;;;;;5012248;28;20047;-79
2024/01/06 11:35:31;;;;;;;45.72;22.17;;;4.60;99.90;;;;;;5054463;28;20105;-78
2024/01/06 11:38:03;;;;;;;40.80;21.02;;;4.70;99.90;;;;;;5049688;28;20029;-78
2024/01/06 11:40:35;;;;;;;42.50;21.48;;;4.60;99.90;;;;;;5059423;28;20737;-80
2024/01/06 11:43:09;;;;;;;46.50;21.23;;;4.60;99.90;;;;;;5028423;28;20033;-80
2024/01/06 11:45:37;;;;;;;46.72;21.90;;;4.60;99.90;;;;;;4996638;28;20037;-80
2024/01/06 11:48:08;;;;;;;57.17;24.35;;;4.50;99.90;;;;;;5010896;28;20054;-75
2024/01/06 11:50:38;;;;;;;76.82;25.20;;;4.50;99.90;;;;;;5026038;28;20037;-75
2024/01/06 11:53:07;;;;;;;107.72;28.80;;;4.50;99.90;;;;;;5004838;28;20049;-76
2024/01/06 11:55:34;;;;;;;126.15;30.73;;;4.50;99.90;;;;;;5019873;28;20064;-74
2024/01/06 11:58:02;;;;;;;133.95;31.50;;;4.40;99.90;;;;;;5022135;28;20053;-74
2024/01/06 12:00:31;;;;;;;126.28;29.42;;;4.40;99.90;;;;;;5011734;28;20128;-76
2024/01/06 12:03:00;;;;;;;134.23;30.83;;;4.40;99.90;;;;;;5021330;28;20052;-75
2024/01/06 12:05:28;;;;;;;136.30;31.75;;;4.40;99.90;;;;;;5012158;28;20337;-74
2024/01/06 12:07:56;;;;;;;166.40;35.38;;;4.30;99.90;;;;;;5011537;28;20049;-74
2024/01/06 12:10:25;;;;;;;239.85;40.58;;;4.40;99.90;;;;;;5038120;28;20090;-74
2024/01/06 12:12:59;;;;;;;148.73;34.72;;;4.40;99.90;;;;;;5019358;28;20491;-74
2024/01/06 12:15:28;;;;;;;128.98;32.13;;;4.50;99.90;;;;;;5030167;28;20045;-75
2024/01/06 12:17:56;;;;;;;127.68;32.92;;;4.40;99.90;;;;;;5001463;28;20666;-75
2024/01/06 12:20:23;;;;;;;136.45;33.55;;;4.40;99.90;;;;;;5016789;28;20044;-75
2024/01/06 12:22:52;;;;;;;114.57;35.38;;;4.30;99.90;;;;;;5021644;28;20736;-74
2024/01/06 12:25:22;;;;;;;123.13;33.40;;;4.30;99.90;;;;;;5022856;28;20052;-74
2024/01/06 12:27:49;;;;;;;111.13;32.67;;;4.20;99.90;;;;;;5026380;28;20430;-73
2024/01/06 12:30:18;;;;;;;116.47;33.10;;;4.30;99.90;;;;;;5025772;28;20134;-75
2024/01/06 12:32:48;;;;;;;110.32;34.08;;;4.30;99.90;;;;;;5027538;28;20052;-74
2024/01/06 12:35:17;;;;;;;116.18;32.50;;;4.20;99.90;;;;;;5021671;28;20550;-75